createdAt,value
2018-10-12T00:00:29.572Z,11.65
2018-10-12T00:06:24.610Z,12.66
2018-10-12T00:12:19.606Z,11.98
2018-10-12T00:18:14.618Z,10.59
2018-10-12T00:24:09.613Z,11.18
2018-10-12T00:30:04.645Z,10.23
2018-10-12T00:35:59.669Z,9.91
2018-10-12T00:41:54.634Z,10.03
2018-10-12T00:47:49.684Z,10.02
2018-10-12T00:53:44.615Z,9.12
2018-10-12T00:59:39.633Z,8.13
2018-10-12T01:05:34.624Z,8.16
2018-10-12T01:11:29.650Z,7.52
2018-10-12T01:17:24.661Z,7.58
2018-10-12T01:23:19.675Z,7.33
2018-10-12T01:29:14.636Z,7.77
2018-10-12T01:35:09.656Z,9.2
2018-10-12T01:41:04.653Z,8.31
2018-10-12T01:46:59.646Z,8.93
2018-10-12T01:52:54.658Z,8.17
2018-10-12T01:58:49.651Z,7.47
2018-10-12T02:04:44.692Z,8.48
2018-10-12T02:10:39.669Z,8.15
2018-10-12T02:16:34.677Z,8.25
2018-10-12T02:22:29.736Z,8.65
2018-10-12T02:28:24.732Z,8.43
2018-10-12T02:34:19.673Z,8.92
2018-10-12T02:40:14.744Z,8.32
2018-10-12T02:46:09.682Z,9.78
2018-10-12T02:52:04.758Z,10.03
2018-10-12T02:57:59.754Z,9.69
2018-10-12T03:03:54.679Z,9.85
2018-10-12T03:09:49.727Z,10.83
2018-10-12T03:15:44.711Z,10.35
2018-10-12T03:21:39.754Z,9.96
2018-10-12T03:27:34.761Z,10.39
2018-10-12T03:33:29.697Z,9.79
2018-10-12T03:39:24.726Z,10.07
2018-10-12T03:45:19.737Z,10.29
2018-10-12T03:51:14.759Z,10.41
2018-10-12T03:57:09.725Z,10.59
2018-10-12T04:03:04.756Z,10.92
2018-10-12T04:08:59.785Z,10.78
2018-10-12T04:14:54.753Z,11.3
2018-10-12T04:20:49.740Z,10.92
2018-10-12T04:26:44.752Z,11.56
2018-10-12T04:32:39.761Z,11.87
2018-10-12T04:38:34.765Z,11.31
2018-10-12T04:44:29.756Z,10.93
2018-10-12T04:50:24.764Z,11.31
2018-10-12T04:56:19.775Z,8.24
2018-10-12T05:02:14.758Z,14.48
2018-10-12T05:08:09.783Z,17.52
2018-10-12T05:14:04.761Z,16.46
2018-10-12T05:19:59.788Z,7.84
2018-10-12T05:25:54.786Z,12.66
2018-10-12T05:31:49.795Z,10.57
2018-10-12T05:37:44.786Z,13.73
2018-10-12T05:43:39.811Z,14.77
2018-10-12T05:49:34.809Z,18.14
2018-10-12T05:55:29.849Z,16.04
2018-10-12T06:01:24.979Z,16.86
2018-10-12T06:07:19.807Z,14.32
2018-10-12T06:13:14.808Z,14.78
2018-10-12T06:19:09.821Z,19.5
2018-10-12T06:25:04.901Z,26.45
2018-10-12T06:30:59.801Z,25.1
2018-10-12T06:36:54.849Z,24.59
2018-10-12T06:42:49.818Z,24.63
2018-10-12T06:48:44.830Z,24.63
2018-10-12T06:54:39.815Z,22.19
2018-10-12T07:00:34.920Z,28.39
2018-10-12T07:06:29.833Z,26.79
2018-10-12T07:12:24.864Z,32.47
2018-10-12T07:18:19.866Z,26.59
2018-10-12T07:24:14.880Z,32.68
2018-10-12T07:30:09.865Z,26.91
2018-10-12T07:36:04.875Z,21.11
2018-10-12T07:41:59.898Z,18.44
2018-10-12T07:47:54.943Z,15
2018-10-12T07:53:49.920Z,12.83
2018-10-12T07:59:44.910Z,13.6
2018-10-12T08:05:39.905Z,13.54
2018-10-12T08:11:34.903Z,10.91
2018-10-12T08:17:29.920Z,14.53
2018-10-12T08:23:24.892Z,14.7
2018-10-12T08:29:19.890Z,13.59
2018-10-12T08:35:14.872Z,13.98
2018-10-12T08:41:09.872Z,13.2
2018-10-12T08:47:04.885Z,13.49
2018-10-12T08:52:59.939Z,12.54
2018-10-12T08:58:54.901Z,14.55
2018-10-12T09:04:49.909Z,12.53
2018-10-12T09:10:44.941Z,11.42
2018-10-12T09:16:39.904Z,12.35
2018-10-12T09:22:34.915Z,12.48
2018-10-12T09:28:29.909Z,13.11
2018-10-12T09:34:24.905Z,12.12
2018-10-12T09:40:19.923Z,10.93
2018-10-12T09:46:14.930Z,12.57
2018-10-12T09:52:09.922Z,12.6
2018-10-12T09:58:04.938Z,11.94
2018-10-12T10:03:59.941Z,11.59
2018-10-12T10:09:54.927Z,11.73
2018-10-12T10:15:49.942Z,11.18
2018-10-12T10:21:44.994Z,11.74
2018-10-12T10:27:39.987Z,10.82
2018-10-12T10:33:34.976Z,11.94
2018-10-12T10:39:29.967Z,11.33
2018-10-12T10:45:25.021Z,11.78
2018-10-12T10:51:20.015Z,11.81
2018-10-12T10:57:14.975Z,11.37
2018-10-12T11:03:09.996Z,12.47
2018-10-12T11:09:04.982Z,13.44
2018-10-12T11:14:59.983Z,13.69
2018-10-12T11:20:54.977Z,13.2
2018-10-12T11:26:50.067Z,13.07
2018-10-12T11:32:45.067Z,12.5
2018-10-12T11:38:40.010Z,14
2018-10-12T11:44:34.994Z,12.19
2018-10-12T11:50:29.996Z,11.89
2018-10-12T11:56:25.005Z,12.42
2018-10-12T12:02:20.162Z,11.73
2018-10-12T12:08:15.080Z,12.58
2018-10-12T12:14:10.039Z,11.08
2018-10-12T12:20:05.078Z,12
2018-10-12T12:26:00.017Z,12.42
2018-10-12T12:31:55.038Z,12.78
2018-10-12T12:37:50.066Z,12.89
2018-10-12T12:43:45.040Z,13.14
2018-10-12T12:49:40.042Z,11.63
2018-10-12T12:55:35.047Z,12.73
2018-10-12T13:01:30.044Z,12.57
2018-10-12T13:07:25.080Z,12.47
2018-10-12T13:13:20.045Z,12.54
2018-10-12T13:19:15.055Z,12.37
2018-10-12T13:25:10.041Z,12.03
2018-10-12T13:31:05.051Z,11.99
2018-10-12T13:37:00.092Z,11.43
2018-10-12T13:42:55.062Z,11.86
2018-10-12T13:48:50.054Z,11.6
2018-10-12T13:54:45.055Z,11.51
2018-10-12T14:00:40.061Z,10.84
2018-10-12T14:06:35.078Z,10.33
2018-10-12T14:12:30.135Z,11.67
2018-10-12T14:18:25.187Z,11.14
2018-10-12T14:24:20.109Z,11.52
2018-10-12T14:30:15.134Z,11.17
2018-10-12T14:36:10.090Z,11.76
2018-10-12T14:42:05.118Z,11.78
2018-10-12T14:48:00.115Z,9.99
2018-10-12T14:53:55.085Z,10.74
2018-10-12T14:59:50.119Z,11.09
2018-10-12T15:05:45.109Z,11.49
2018-10-12T15:11:40.147Z,12.11
2018-10-12T15:17:35.167Z,11.1
2018-10-12T15:23:30.148Z,10.59
2018-10-12T15:29:25.110Z,10.89
2018-10-12T15:35:20.118Z,10.67
2018-10-12T15:41:15.220Z,10.91
2018-10-12T15:47:10.143Z,11.16
2018-10-12T15:53:05.148Z,11.29
2018-10-12T15:59:00.160Z,10.71
2018-10-12T16:04:55.145Z,12.74
2018-10-12T16:10:50.148Z,13.02
2018-10-12T16:16:45.154Z,11.87
2018-10-12T16:22:40.243Z,13.45
2018-10-12T16:28:35.194Z,12.62
2018-10-12T16:34:30.180Z,14.98
2018-10-12T16:40:25.204Z,27.41
2018-10-12T16:46:20.173Z,14.26
2018-10-12T16:52:15.189Z,12.83
2018-10-12T16:58:10.369Z,13.71
2018-10-12T17:04:05.248Z,14.2
2018-10-12T17:10:00.219Z,14.56
2018-10-12T17:15:55.203Z,14.22
2018-10-12T17:21:50.237Z,13.37
2018-10-12T17:27:45.226Z,13.18
2018-10-12T17:33:40.193Z,13.84
2018-10-12T17:39:35.237Z,14.57
2018-10-12T17:45:30.231Z,15.33
2018-10-12T17:51:25.210Z,15.99
2018-10-12T17:57:20.200Z,15.41
2018-10-12T18:03:15.219Z,12.15
2018-10-12T18:09:10.257Z,12.12
2018-10-12T18:15:05.241Z,12.88
2018-10-12T18:21:00.252Z,14.18
2018-10-12T18:26:55.229Z,15.42
2018-10-12T18:32:50.269Z,14.68
2018-10-12T18:38:45.217Z,15.12
2018-10-12T18:44:40.277Z,15.16
2018-10-12T18:50:35.308Z,14.91
2018-10-12T18:56:30.242Z,14.82
2018-10-12T19:02:25.253Z,14.44
2018-10-12T19:08:20.317Z,13.2
2018-10-12T19:14:15.240Z,12.22
2018-10-12T19:20:10.267Z,12.73
2018-10-12T19:26:05.273Z,11.27
2018-10-12T19:32:00.334Z,15.09
2018-10-12T19:37:55.277Z,16.68
2018-10-12T19:43:50.315Z,17.61
2018-10-12T19:49:45.376Z,16.55
2018-10-12T19:55:40.274Z,16.99
2018-10-12T20:01:35.315Z,11.4
2018-10-12T20:07:30.286Z,15.43
2018-10-12T20:13:25.333Z,13.32
2018-10-12T20:19:20.301Z,15.19
2018-10-12T20:25:15.310Z,13.6
2018-10-12T20:31:10.358Z,13.28
2018-10-12T20:37:05.403Z,14.52
2018-10-12T20:43:00.305Z,14.92
2018-10-12T20:48:55.341Z,14.04
2018-10-12T20:54:50.306Z,13.46
2018-10-12T21:00:45.397Z,13.1
2018-10-12T21:06:40.322Z,12.45
2018-10-12T21:12:35.316Z,13.52
2018-10-12T21:18:30.317Z,13.53
2018-10-12T21:24:25.318Z,13.31
2018-10-12T21:30:20.359Z,13.49
2018-10-12T21:36:15.329Z,13.7
2018-10-12T21:42:10.359Z,15.13
2018-10-12T21:48:05.359Z,16.83
2018-10-12T21:54:00.403Z,15.54
2018-10-12T21:59:55.444Z,15.59
2018-10-12T22:05:50.373Z,15.22
2018-10-12T22:11:45.363Z,15.17
2018-10-12T22:17:40.370Z,16.42
2018-10-12T22:23:35.369Z,16.2
2018-10-12T22:29:30.386Z,15.79
2018-10-12T22:35:25.387Z,15.22
2018-10-12T22:41:20.415Z,17.68
2018-10-12T22:47:16.063Z,16.5
2018-10-12T22:53:10.383Z,16.26
2018-10-12T22:59:05.387Z,18.07
2018-10-12T23:05:00.398Z,17.14
2018-10-12T23:10:55.440Z,17.1
2018-10-12T23:16:50.457Z,15.14
2018-10-12T23:22:45.395Z,16.93
2018-10-12T23:28:40.421Z,17.63
2018-10-12T23:34:35.420Z,18.56
2018-10-12T23:40:30.452Z,17.34
2018-10-12T23:46:25.446Z,17.9
2018-10-12T23:52:20.415Z,17.75
2018-10-12T23:58:15.415Z,18.04
